Portada
METAR-TAF:

METAR-TAF

Aeroports :

Gove Peninsula, Austràlia

latitud: 12-16-12S, longitud: 136-49-06E, altitud: 62 m

Observació

L'informe es va fer fa 43 minuts, a les 14:00 UTC
Vent 10 kt del Nord
Temperatura 28°C
Humitat 84%
Pressió 1008 hPa
Visibilitat 10 km o més
Núvols disperses a una alçada de 1900 ft

METAR: YPGV 261400Z AUTO 35010KT 9999 // SCT019 28/25 Q1008

Hora: 00:13 (14:43 UTC)

Pronòstic

L'informe es va fer fa 2 hores i 25 minuts, a les 12:18 UTC
Pronòstic vàlid del 26 a les 14 UTC al 27 a les 02 UTC
Vent 10 kt del Nord/Nord-Oest
Visibilitat: 8000 m
Núvols disperses a una alçada de 1500 ft
Cel ennuvolat a una alçada de 2500 ft
xàfecs de pluja
A partir de les 26 a les 2300 UTC
Vent 14 kt del Nord/Nord-Oest
Visibilitat 10 km o més
Cel ennuvolat a una alçada de 2000 ft
xàfecs de pluja

TAF: YPGV 261218Z 2614/2702 34010KT 8000 -SHRA SCT015 BKN025 FM262300 34014KT 9999 -SHRA BKN020

Observacions i pronòstics meteorològics de més de 4000 aeroports (METAR i TAF).

Les estacions disponibles són els punts grocs i vermells al mapa.

Posi el ratolí al punt desitjat per veure el nom de l'estació.

Feu clic per veure les observacions i els pronòstics meteorològics.

Per canviar el mapa: feu clic els botons verds amb una creu de color negre per apropar; al botó verd amb un guió per allunyar la imatge; o en les fletxes verdes per a mapes adjacents.


METAR-TAF: